Matlacha, Florida
Current Conditions -  °F | °C
As of 1:37 AM on Wednesday 26 Nov 2014 (Local Time) from KFMY Reporting Station
Thunderstorm Thunderstorm  
Wind Chill: 73°   Ceiling: 4300
Heat Index: 73°   Visibility: 4mi
Dew Point: 72°   Wind: 6mph
Humidity: 96%   Direction: 200°SSW
Pressure: 29.89"   Gusts: NA
Location:  26.6904°N, 82.0304°W
Report Text: KFMY 260637Z AUTO 20005KT 4SM VCTS RA BR BKN043 BKN065 OVC085 23/22 A2989 RMK AO2 LTG DSNT ALQDS TSE15B16E31 P0069 T02280222
Loading
Personal Weather Stations






























Interactive Weather Map New forecast layout! Learn more

10-Day Weather Forecast

Advertisements
Track Severe Weather on mobile